createdAt,value
2023-06-04T00:00:02.657Z,101082.81
2023-06-04T00:02:38.523Z,101088.80
2023-06-04T00:05:11.444Z,101090.23
2023-06-04T00:07:41.616Z,101089.45
2023-06-04T00:10:13.764Z,101090.91
2023-06-04T00:12:45.585Z,101091.34
2023-06-04T00:15:18.447Z,101092.80
2023-06-04T00:17:50.492Z,101087.75
2023-06-04T00:20:22.615Z,101084.92
2023-06-04T00:22:54.317Z,101079.73
2023-06-04T00:25:26.158Z,101082.99
2023-06-04T00:27:58.020Z,101077.58
2023-06-04T00:30:29.980Z,101073.09
2023-06-04T00:33:03.195Z,101071.99
2023-06-04T00:35:35.692Z,101072.63
2023-06-04T00:38:07.503Z,101068.42
2023-06-04T00:40:39.158Z,101068.25
2023-06-04T00:43:11.456Z,101067.73
2023-06-04T00:45:44.703Z,101071.45
2023-06-04T00:48:16.618Z,101067.33
2023-06-04T00:50:49.641Z,101068.55
2023-06-04T00:53:21.776Z,101073.70
2023-06-04T00:55:53.677Z,101070.59
2023-06-04T00:58:26.429Z,101073.09
2023-06-04T01:01:05.718Z,101075.37
2023-06-04T01:03:43.516Z,101075.21
2023-06-04T01:06:22.303Z,101076.36
2023-06-04T01:08:56.275Z,101072.09
2023-06-04T01:11:38.854Z,101071.48
2023-06-04T01:14:12.482Z,101069.47
2023-06-04T01:16:51.463Z,101071.21
2023-06-04T01:19:49.075Z,101075.14
2023-06-04T01:22:32.622Z,101074.66
2023-06-04T01:25:07.675Z,101074.24
2023-06-04T01:27:41.391Z,101074.40
2023-06-04T01:30:15.334Z,101072.48
2023-06-04T01:32:48.715Z,101073.48
2023-06-04T01:35:20.604Z,101069.13
2023-06-04T01:37:52.892Z,101066.61
2023-06-04T01:40:26.122Z,101066.60
2023-06-04T01:42:58.691Z,101069.20
2023-06-04T01:45:30.965Z,101067.91
2023-06-04T01:48:05.328Z,101064.02
2023-06-04T01:50:37.571Z,101064.52
2023-06-04T01:53:09.311Z,101064.20
2023-06-04T01:55:41.056Z,101057.34
2023-06-04T01:58:12.779Z,101061.48
2023-06-04T02:00:44.885Z,101060.45
2023-06-04T02:03:17.238Z,101058.91
2023-06-04T02:05:49.950Z,101062.71
2023-06-04T02:08:22.190Z,101063.23
2023-06-04T02:10:53.979Z,101062.20
2023-06-04T02:13:25.800Z,101057.61
2023-06-04T02:15:57.546Z,101058.63
2023-06-04T02:18:29.780Z,101057.95
2023-06-04T02:21:01.950Z,101058.27
2023-06-04T02:23:33.892Z,101058.25
2023-06-04T02:26:06.337Z,101055.77
2023-06-04T02:28:38.238Z,101055.39
2023-06-04T02:31:10.066Z,101057.31
2023-06-04T02:33:42.619Z,101060.33
2023-06-04T02:36:14.447Z,101059.50
2023-06-04T02:38:46.401Z,101063.62
2023-06-04T02:41:18.245Z,101062.72
2023-06-04T02:43:49.968Z,101062.98
2023-06-04T02:46:21.749Z,101062.48
2023-06-04T02:48:53.690Z,101065.80
2023-06-04T02:51:25.395Z,101061.95
2023-06-04T02:53:57.558Z,101061.50
2023-06-04T02:56:29.290Z,101063.67
2023-06-04T02:59:00.993Z,101060.14
2023-06-04T03:01:33.178Z,101064.29
2023-06-04T03:04:06.037Z,101063.84
2023-06-04T03:06:39.223Z,101059.17
2023-06-04T03:09:11.025Z,101061.50
2023-06-04T03:11:43.394Z,101057.24
2023-06-04T03:14:15.229Z,101060.91
2023-06-04T03:16:46.988Z,101058.80
2023-06-04T03:19:18.893Z,101058.61
2023-06-04T03:21:53.270Z,101059.42
2023-06-04T03:24:25.144Z,101058.13
2023-06-04T03:26:56.863Z,101059.11
2023-06-04T03:29:28.649Z,101058.55
2023-06-04T03:32:00.458Z,101060.86
2023-06-04T03:34:35.499Z,101060.17
2023-06-04T03:37:07.841Z,101062.20
2023-06-04T03:39:39.974Z,101059.36
2023-06-04T03:42:14.759Z,101060.86
2023-06-04T03:44:47.409Z,101060.66
2023-06-04T03:47:20.092Z,101060.10
2023-06-04T03:49:51.923Z,101057.35
2023-06-04T03:52:24.501Z,101058.16
2023-06-04T03:54:57.209Z,101061.16
2023-06-04T03:57:29.203Z,101058.49
2023-06-04T04:00:01.249Z,101060.19
2023-06-04T04:02:34.087Z,101061.73
2023-06-04T04:05:06.523Z,101061.02
2023-06-04T04:07:38.341Z,101063.44
2023-06-04T04:10:12.024Z,101065.94
2023-06-04T04:12:43.815Z,101063.58
2023-06-04T04:15:15.848Z,101065.43
2023-06-04T04:17:46.933Z,101061.11
2023-06-04T04:20:20.242Z,101060.30
2023-06-04T04:22:56.244Z,101060.65
2023-06-04T04:25:28.811Z,101058.63
2023-06-04T04:28:01.784Z,101058.03
2023-06-04T04:30:35.978Z,101058.45
2023-06-04T04:33:09.106Z,101054.67
2023-06-04T04:35:49.148Z,101056.15
2023-06-04T04:38:25.114Z,101059.15
2023-06-04T04:41:03.278Z,101062.52
2023-06-04T04:43:38.502Z,101058.80
2023-06-04T04:46:15.928Z,101063.33
2023-06-04T04:48:47.713Z,101062.21
2023-06-04T04:51:19.962Z,101063.36
2023-06-04T04:53:51.857Z,101064.66
2023-06-04T04:56:24.337Z,101068.21
2023-06-04T04:58:56.766Z,101070.58
2023-06-04T05:01:28.556Z,101069.48
2023-06-04T05:04:02.688Z,101071.50
2023-06-04T05:06:35.528Z,101073.76
2023-06-04T05:09:08.604Z,101073.45
2023-06-04T05:11:41.418Z,101070.17
2023-06-04T05:14:13.280Z,101076.31
2023-06-04T05:16:46.518Z,101076.44
2023-06-04T05:19:19.375Z,101079.76
2023-06-04T05:21:52.215Z,101075.10
2023-06-04T05:24:24.178Z,101077.14
2023-06-04T05:26:56.054Z,101078.20
2023-06-04T05:29:28.022Z,101082.55
2023-06-04T05:31:59.956Z,101083.07
2023-06-04T05:34:31.979Z,101081.28
2023-06-04T05:37:05.063Z,101077.73
2023-06-04T05:39:36.952Z,101078.87
2023-06-04T05:42:16.331Z,101079.27
2023-06-04T05:44:49.150Z,101079.02
2023-06-04T05:47:22.036Z,101081.05
2023-06-04T05:49:53.842Z,101076.25
2023-06-04T05:52:26.427Z,101084.14
2023-06-04T05:54:58.416Z,101084.00
2023-06-04T05:57:30.938Z,101084.95
2023-06-04T06:00:02.759Z,101085.27
2023-06-04T06:02:35.772Z,101080.83
2023-06-04T06:05:09.269Z,101085.73
2023-06-04T06:07:41.138Z,101085.88
2023-06-04T06:10:14.508Z,101096.73
2023-06-04T06:12:46.634Z,101098.33
2023-06-04T06:15:18.871Z,101094.02
2023-06-04T06:17:54.696Z,101100.08
2023-06-04T06:20:27.129Z,101099.81
2023-06-04T06:22:59.231Z,101103.85
2023-06-04T06:25:31.521Z,101100.45
2023-06-04T06:28:09.121Z,101105.14
2023-06-04T06:30:40.707Z,101105.98
2023-06-04T06:33:12.424Z,101114.63
2023-06-04T06:35:47.411Z,101113.05
2023-06-04T06:38:19.439Z,101113.21
2023-06-04T06:40:52.476Z,101114.30
2023-06-04T06:43:24.678Z,101116.95
2023-06-04T06:45:56.841Z,101124.20
2023-06-04T06:48:28.733Z,101118.91
2023-06-04T06:51:00.559Z,101120.14
2023-06-04T06:53:32.900Z,101120.39
2023-06-04T06:56:04.832Z,101109.85
2023-06-04T06:58:37.793Z,101120.08
2023-06-04T07:01:08.363Z,101118.96
2023-06-04T07:03:40.784Z,101122.27
2023-06-04T07:06:12.849Z,101122.23
2023-06-04T07:08:45.168Z,101122.10
2023-06-04T07:11:17.810Z,101122.75
2023-06-04T07:13:48.232Z,101121.20
2023-06-04T07:16:21.294Z,101121.58
2023-06-04T07:18:53.228Z,101121.91
2023-06-04T07:21:25.359Z,101119.67
2023-06-04T07:23:57.311Z,101116.41
2023-06-04T07:26:33.306Z,101124.89
2023-06-04T07:29:06.764Z,101118.60
2023-06-04T07:31:38.708Z,101119.23
2023-06-04T07:34:10.607Z,101119.77
2023-06-04T07:36:42.536Z,101123.98
2023-06-04T07:39:14.432Z,101127.17
2023-06-04T07:41:46.367Z,101130.61
2023-06-04T07:44:18.199Z,101125.66
2023-06-04T07:46:50.472Z,101131.65
2023-06-04T07:49:22.609Z,101134.05
2023-06-04T07:51:54.388Z,101127.67
2023-06-04T07:54:26.974Z,101131.52
2023-06-04T07:56:58.494Z,101128.30
2023-06-04T07:59:30.753Z,101126.33
2023-06-04T08:02:02.764Z,101124.51
2023-06-04T08:04:34.625Z,101124.98
2023-06-04T08:07:06.700Z,101121.56
2023-06-04T08:09:38.829Z,101128.25
2023-06-04T08:12:11.484Z,101128.24
2023-06-04T08:14:41.765Z,101125.84
2023-06-04T08:17:13.641Z,101131.81
2023-06-04T08:19:45.455Z,101128.41
2023-06-04T08:22:17.281Z,101131.67
2023-06-04T08:24:49.262Z,101135.86
2023-06-04T08:27:20.916Z,101129.69
2023-06-04T08:29:53.330Z,101133.07
2023-06-04T08:32:25.474Z,101130.35
2023-06-04T08:34:57.575Z,101128.62
2023-06-04T08:37:29.911Z,101127.38
2023-06-04T08:40:01.682Z,101130.35
2023-06-04T08:42:40.222Z,101130.77
2023-06-04T08:45:14.326Z,101129.77
2023-06-04T08:47:50.379Z,101129.45
2023-06-04T08:50:24.813Z,101122.17
2023-06-04T08:52:58.121Z,101127.60
2023-06-04T08:55:30.375Z,101126.15
2023-06-04T08:58:04.554Z,101127.44
2023-06-04T09:00:36.360Z,101122.00
2023-06-04T09:03:08.347Z,101124.77
2023-06-04T09:05:43.416Z,101125.63
2023-06-04T09:08:16.493Z,101119.00
2023-06-04T09:10:52.774Z,101123.16
2023-06-04T09:13:30.299Z,101118.86
2023-06-04T09:16:06.993Z,101121.21
2023-06-04T09:18:38.895Z,101118.23
2023-06-04T09:21:11.594Z,101117.78
2023-06-04T09:23:47.546Z,101113.58
2023-06-04T09:26:19.428Z,101115.40
2023-06-04T09:28:53.986Z,101117.42
2023-06-04T09:31:27.899Z,101114.66
2023-06-04T09:33:59.845Z,101114.27
2023-06-04T09:36:36.490Z,101109.48
2023-06-04T09:39:18.733Z,101109.65
2023-06-04T09:42:01.668Z,101108.88
2023-06-04T09:44:44.587Z,101111.80
2023-06-04T09:47:16.974Z,101107.96
2023-06-04T09:49:51.116Z,101105.59
2023-06-04T09:52:22.951Z,101103.64
2023-06-04T09:54:54.684Z,101099.77
2023-06-04T09:57:27.516Z,101101.55
2023-06-04T10:00:01.386Z,101104.98
2023-06-04T10:02:45.305Z,101103.34
2023-06-04T10:05:21.589Z,101107.48
2023-06-04T10:07:56.124Z,101107.02
2023-06-04T10:10:29.665Z,101111.98
2023-06-04T10:13:07.612Z,101111.06
2023-06-04T10:15:40.385Z,101108.09
2023-06-04T10:18:15.262Z,101111.02
2023-06-04T10:20:47.942Z,101112.05
2023-06-04T10:23:22.147Z,101104.52
2023-06-04T10:25:55.208Z,101107.98
2023-06-04T10:28:29.236Z,101112.38
2023-06-04T10:31:01.952Z,101110.36
2023-06-04T10:33:32.206Z,101108.35
2023-06-04T10:36:21.065Z,101106.02
2023-06-04T10:38:56.095Z,101109.77
2023-06-04T10:41:28.848Z,101107.09
2023-06-04T10:44:06.307Z,101105.80
2023-06-04T10:46:45.368Z,101100.32
2023-06-04T10:49:27.962Z,101100.35
2023-06-04T10:52:04.191Z,101104.95
2023-06-04T10:54:37.035Z,101104.02
2023-06-04T10:57:16.871Z,101102.69
2023-06-04T10:59:59.051Z,101101.56
2023-06-04T11:02:31.059Z,101100.83
2023-06-04T11:05:07.172Z,101100.22
2023-06-04T11:07:46.618Z,101095.34
2023-06-04T11:10:19.517Z,101095.80
2023-06-04T11:12:52.504Z,101099.77
2023-06-04T11:15:24.578Z,101101.16
2023-06-04T11:17:59.430Z,101095.49
2023-06-04T11:20:31.614Z,101090.41
2023-06-04T11:23:04.380Z,101090.14
2023-06-04T11:25:36.373Z,101088.52
2023-06-04T11:28:08.767Z,101084.86
2023-06-04T11:30:39.324Z,101085.93
2023-06-04T11:33:11.305Z,101085.61
2023-06-04T11:35:47.953Z,101089.39
2023-06-04T11:38:19.901Z,101084.25
2023-06-04T11:41:01.490Z,101083.80
2023-06-04T11:43:34.049Z,101083.09
2023-06-04T11:46:11.856Z,101080.35
2023-06-04T11:48:44.949Z,101085.00
2023-06-04T11:51:18.098Z,101080.91
2023-06-04T11:53:50.839Z,101078.52
2023-06-04T11:56:23.241Z,101081.59
2023-06-04T11:58:53.691Z,101079.38
2023-06-04T12:01:29.768Z,101079.31
2023-06-04T12:04:01.705Z,101077.63
2023-06-04T12:06:34.294Z,101084.56
2023-06-04T12:09:06.459Z,101078.98
2023-06-04T12:11:38.616Z,101082.71
2023-06-04T12:14:17.753Z,101080.70
2023-06-04T12:16:59.746Z,101076.81
2023-06-04T12:19:32.621Z,101073.27
2023-06-04T12:22:06.396Z,101065.98
2023-06-04T12:24:54.187Z,101067.92
2023-06-04T12:27:27.609Z,101066.17
2023-06-04T12:30:01.137Z,101062.23
2023-06-04T12:32:36.904Z,101063.88
2023-06-04T12:35:10.226Z,101063.40
2023-06-04T12:37:42.197Z,101058.90
2023-06-04T12:40:15.090Z,101058.16
2023-06-04T12:42:47.104Z,101056.46
2023-06-04T12:45:19.367Z,101056.51
2023-06-04T12:47:51.726Z,101056.77
2023-06-04T12:50:22.919Z,101057.35
2023-06-04T12:52:54.972Z,101055.36
2023-06-04T12:55:28.365Z,101058.20
2023-06-04T12:58:01.687Z,101059.36
2023-06-04T13:00:33.616Z,101058.41
2023-06-04T13:03:07.013Z,101057.88
2023-06-04T13:05:40.396Z,101053.20
2023-06-04T13:08:12.496Z,101060.48
2023-06-04T13:10:44.326Z,101062.80
2023-06-04T13:13:28.025Z,101061.45
2023-06-04T13:16:00.381Z,101063.27
2023-06-04T13:18:32.380Z,101061.65
2023-06-04T13:21:10.647Z,101057.02
2023-06-04T13:26:21.377Z,101053.59
2023-06-04T13:28:53.725Z,101052.86
2023-06-04T13:31:26.308Z,101049.64
2023-06-04T13:33:57.147Z,101047.05
2023-06-04T13:36:30.016Z,101038.58
2023-06-04T13:39:02.542Z,101042.10
2023-06-04T13:41:35.604Z,101041.83
2023-06-04T13:44:08.462Z,101045.67
2023-06-04T13:46:43.013Z,101039.10
2023-06-04T13:49:14.961Z,101041.75
2023-06-04T13:51:47.143Z,101047.41
2023-06-04T13:54:19.385Z,101043.73
2023-06-04T13:56:52.454Z,101045.23
2023-06-04T13:59:24.447Z,101043.42
2023-06-04T14:01:56.325Z,101043.77
2023-06-04T14:04:28.123Z,101041.52
2023-06-04T14:07:00.317Z,101040.04
2023-06-04T14:09:31.163Z,101032.40
2023-06-04T14:12:03.677Z,101031.77
2023-06-04T14:14:38.201Z,101034.55
2023-06-04T14:17:10.150Z,101031.02
2023-06-04T14:19:42.410Z,101028.52
2023-06-04T14:22:14.797Z,101025.31
2023-06-04T14:24:46.989Z,101022.33
2023-06-04T14:27:19.516Z,101023.90
2023-06-04T14:29:49.905Z,101029.55
2023-06-04T14:32:21.981Z,101032.55
2023-06-04T14:34:54.054Z,101028.96
2023-06-04T14:37:26.450Z,101025.13
2023-06-04T14:39:58.423Z,101028.34
2023-06-04T14:42:30.818Z,101024.23
2023-06-04T14:45:02.699Z,101024.98
2023-06-04T14:47:34.720Z,101020.72
2023-06-04T14:50:07.421Z,101016.02
2023-06-04T14:52:39.340Z,101017.67
2023-06-04T14:55:12.144Z,101014.59
2023-06-04T14:57:44.084Z,101014.23
2023-06-04T15:00:17.097Z,101010.98
2023-06-04T15:02:49.139Z,101015.84
2023-06-04T15:05:21.101Z,101014.59
2023-06-04T15:07:53.041Z,101010.27
2023-06-04T15:10:24.802Z,101007.95
2023-06-04T15:12:57.327Z,101002.44
2023-06-04T15:15:29.634Z,101001.02
2023-06-04T15:18:01.612Z,101000.04
2023-06-04T15:20:33.955Z,100999.58
2023-06-04T15:23:05.912Z,100994.79
2023-06-04T15:25:40.084Z,100998.45
2023-06-04T15:28:11.987Z,100996.20
2023-06-04T15:30:43.781Z,100994.55
2023-06-04T15:33:17.538Z,100994.73
2023-06-04T15:35:49.546Z,100994.52
2023-06-04T15:38:21.521Z,100990.59
2023-06-04T15:40:53.481Z,100986.30
2023-06-04T15:43:25.390Z,100983.16
2023-06-04T15:45:57.205Z,100987.69
2023-06-04T15:48:30.402Z,100986.13
2023-06-04T15:51:02.412Z,100988.40
2023-06-04T15:53:34.185Z,100984.10
2023-06-04T15:56:06.674Z,100983.62
2023-06-04T15:58:38.633Z,100981.38
2023-06-04T16:01:10.653Z,100985.30
2023-06-04T16:03:44.083Z,100985.82
2023-06-04T16:06:16.216Z,100989.77
2023-06-04T16:08:48.109Z,100986.91
2023-06-04T16:11:20.027Z,100988.39
2023-06-04T16:13:52.076Z,100987.69
2023-06-04T16:16:24.049Z,100981.60
2023-06-04T16:18:56.060Z,100978.98
2023-06-04T16:21:27.035Z,100976.98
2023-06-04T16:23:58.838Z,100983.19
2023-06-04T16:26:31.444Z,100976.33
2023-06-04T16:29:03.374Z,100976.56
2023-06-04T16:31:35.279Z,100976.92
2023-06-04T16:34:07.649Z,100981.23
2023-06-04T16:36:40.119Z,100981.98
2023-06-04T16:39:12.910Z,100979.02
2023-06-04T16:41:45.463Z,100978.96
2023-06-04T16:44:17.616Z,100980.33
2023-06-04T16:46:49.613Z,100980.25
2023-06-04T16:49:21.589Z,100983.72
2023-06-04T16:51:52.121Z,100981.31
2023-06-04T16:54:24.283Z,100981.89
2023-06-04T16:56:59.335Z,100980.23
2023-06-04T16:59:33.158Z,100976.31
2023-06-04T17:02:05.744Z,100975.91
2023-06-04T17:04:37.687Z,100970.85
2023-06-04T17:07:10.766Z,100974.00
2023-06-04T17:09:42.610Z,100971.65
2023-06-04T17:12:13.283Z,100971.77
2023-06-04T17:14:45.887Z,100970.75
2023-06-04T17:17:18.640Z,100974.24
2023-06-04T17:19:51.060Z,100972.92
2023-06-04T17:22:23.186Z,100974.54
2023-06-04T17:24:55.257Z,100978.42
2023-06-04T17:27:27.221Z,100974.79
2023-06-04T17:29:59.633Z,100972.70
2023-06-04T17:32:31.595Z,100975.23
2023-06-04T17:35:05.662Z,100972.75
2023-06-04T17:37:37.963Z,100974.58
2023-06-04T17:40:11.471Z,100973.63
2023-06-04T17:42:47.560Z,100977.96
2023-06-04T17:45:20.083Z,100978.01
2023-06-04T17:47:52.668Z,100977.34
2023-06-04T17:50:25.177Z,100973.34
2023-06-04T17:52:57.050Z,100975.83
2023-06-04T17:55:31.712Z,100975.05
2023-06-04T17:58:03.994Z,100976.52
2023-06-04T18:00:34.559Z,100980.73
2023-06-04T18:03:08.672Z,100979.09
2023-06-04T18:05:41.536Z,100975.69
2023-06-04T18:08:14.721Z,100980.66
2023-06-04T18:10:47.002Z,100978.07
2023-06-04T18:13:19.778Z,100988.85
2023-06-04T18:15:51.788Z,100982.67
2023-06-04T18:18:24.959Z,100989.42
2023-06-04T18:20:58.195Z,100991.42
2023-06-04T18:23:30.472Z,100993.63
2023-06-04T18:26:03.164Z,100991.53
2023-06-04T18:28:35.882Z,100995.00
2023-06-04T18:31:08.941Z,100992.08
2023-06-04T18:33:53.150Z,100991.05
2023-06-04T18:36:25.452Z,100993.09
2023-06-04T18:38:58.910Z,100999.11
2023-06-04T18:41:29.415Z,100992.28
2023-06-04T18:44:01.309Z,100998.27
2023-06-04T18:46:34.618Z,100998.52
2023-06-04T18:49:05.591Z,100993.84
2023-06-04T18:51:38.250Z,101000.23
2023-06-04T18:54:10.716Z,101003.98
2023-06-04T18:56:42.879Z,101009.22
2023-06-04T18:59:17.697Z,101009.52
2023-06-04T19:01:49.759Z,101012.42
2023-06-04T19:04:22.010Z,101014.30
2023-06-04T19:06:55.204Z,101013.54
2023-06-04T19:09:28.332Z,101016.04
2023-06-04T19:12:00.135Z,101019.11
2023-06-04T19:14:32.635Z,101019.99
2023-06-04T19:17:05.399Z,101023.44
2023-06-04T19:19:39.154Z,101029.63
2023-06-04T19:22:11.082Z,101029.30
2023-06-04T19:24:44.321Z,101028.98
2023-06-04T19:27:17.824Z,101026.29
2023-06-04T19:29:51.190Z,101027.62
2023-06-04T19:32:24.341Z,101026.02
2023-06-04T19:34:56.513Z,101031.52
2023-06-04T19:37:30.148Z,101030.84
2023-06-04T19:40:05.607Z,101029.48
2023-06-04T19:42:37.834Z,101032.45
2023-06-04T19:45:12.129Z,101035.88
2023-06-04T19:47:44.605Z,101034.83
2023-06-04T19:50:16.834Z,101037.90
2023-06-04T19:52:49.006Z,101038.38
2023-06-04T19:55:20.782Z,101037.48
2023-06-04T19:57:56.568Z,101037.98
2023-06-04T20:00:29.791Z,101043.42
2023-06-04T20:03:02.599Z,101039.97
2023-06-04T20:05:35.381Z,101040.40
2023-06-04T20:08:07.557Z,101042.48
2023-06-04T20:10:39.612Z,101045.16
2023-06-04T20:13:12.138Z,101043.48
2023-06-04T20:15:42.667Z,101041.74
2023-06-04T20:18:15.349Z,101045.10
2023-06-04T20:20:52.948Z,101046.09
2023-06-04T20:23:25.052Z,101046.91
2023-06-04T20:25:59.977Z,101051.58
2023-06-04T20:28:34.001Z,101051.34
2023-06-04T20:31:05.972Z,101053.52
2023-06-04T20:33:38.112Z,101054.02
2023-06-04T20:36:10.243Z,101049.06
2023-06-04T20:38:41.234Z,101053.21
2023-06-04T20:41:13.174Z,101050.61
2023-06-04T20:43:53.824Z,101057.50
2023-06-04T20:46:26.349Z,101055.73
2023-06-04T20:48:58.210Z,101059.79
2023-06-04T20:51:30.628Z,101058.45
2023-06-04T20:54:02.513Z,101057.50
2023-06-04T20:56:34.812Z,101058.16
2023-06-04T20:59:06.632Z,101059.68
2023-06-04T21:01:38.549Z,101057.14
2023-06-04T21:04:11.788Z,101057.55
2023-06-04T21:06:44.282Z,101054.72
2023-06-04T21:09:16.152Z,101053.23
2023-06-04T21:11:48.118Z,101049.94
2023-06-04T21:14:19.970Z,101049.36
2023-06-04T21:16:52.022Z,101051.38
2023-06-04T21:19:23.801Z,101051.88
2023-06-04T21:21:56.459Z,101049.98
2023-06-04T21:24:28.392Z,101054.89
2023-06-04T21:27:00.233Z,101057.40
2023-06-04T21:29:32.383Z,101054.16
2023-06-04T21:32:05.424Z,101057.91
2023-06-04T21:34:38.616Z,101053.13
2023-06-04T21:37:10.568Z,101054.12
2023-06-04T21:39:42.467Z,101057.25
2023-06-04T21:42:14.579Z,101062.02
2023-06-04T21:44:46.563Z,101061.45
2023-06-04T21:47:18.992Z,101060.98
2023-06-04T21:49:51.708Z,101064.88
2023-06-04T21:52:25.891Z,101064.80
2023-06-04T21:54:58.074Z,101070.30
2023-06-04T21:57:30.070Z,101070.23
2023-06-04T22:00:02.977Z,101074.08
2023-06-04T22:02:45.170Z,101075.98
2023-06-04T22:05:17.344Z,101075.82
2023-06-04T22:07:49.464Z,101075.83
2023-06-04T22:10:21.245Z,101078.05
2023-06-04T22:12:53.048Z,101080.50
2023-06-04T22:15:24.958Z,101081.45
2023-06-04T22:18:00.361Z,101081.77
2023-06-04T22:20:32.798Z,101077.42
2023-06-04T22:23:05.271Z,101077.67
2023-06-04T22:25:37.196Z,101074.59
2023-06-04T22:28:09.100Z,101076.28
2023-06-04T22:30:41.388Z,101077.60
2023-06-04T22:33:13.420Z,101076.50
2023-06-04T22:35:45.317Z,101077.98
2023-06-04T22:38:17.191Z,101080.05
2023-06-04T22:40:49.247Z,101079.05
2023-06-04T22:43:21.472Z,101077.30
2023-06-04T22:45:53.517Z,101076.94
2023-06-04T22:48:25.336Z,101079.24
2023-06-04T22:50:57.886Z,101079.58
2023-06-04T22:53:29.950Z,101079.27
2023-06-04T22:56:07.419Z,101079.73
2023-06-04T22:58:39.767Z,101079.19
2023-06-04T23:01:11.648Z,101080.64
2023-06-04T23:03:45.440Z,101081.95
2023-06-04T23:06:17.583Z,101083.41
2023-06-04T23:08:49.780Z,101085.64
2023-06-04T23:11:21.659Z,101087.60
2023-06-04T23:13:53.887Z,101088.83
2023-06-04T23:16:25.686Z,101087.17
2023-06-04T23:18:57.523Z,101088.46
2023-06-04T23:21:29.261Z,101087.83
2023-06-04T23:24:00.967Z,101089.96
2023-06-04T23:26:32.883Z,101089.80
2023-06-04T23:29:05.033Z,101093.21
2023-06-04T23:31:36.962Z,101090.48
2023-06-04T23:34:08.761Z,101090.19
2023-06-04T23:36:40.448Z,101092.10
2023-06-04T23:39:12.432Z,101095.96
2023-06-04T23:41:44.110Z,101093.66
2023-06-04T23:44:18.221Z,101095.00
2023-06-04T23:46:50.740Z,101092.91
2023-06-04T23:49:22.490Z,101092.98
2023-06-04T23:51:54.270Z,101091.20
2023-06-04T23:54:26.250Z,101097.36
2023-06-04T23:56:58.227Z,101089.21
2023-06-04T23:59:29.906Z,101089.10
